createdAt,value
2019-02-06T00:02:17.541Z,3.80
2019-02-06T00:07:13.402Z,4.70
2019-02-06T00:09:41.651Z,3.60
2019-02-06T00:14:37.941Z,3.50
2019-02-06T00:17:05.957Z,3.40
2019-02-06T00:19:34.883Z,3.60
2019-02-06T00:22:03.100Z,3.70
2019-02-06T00:27:01.144Z,3.70
2019-02-06T00:29:29.452Z,3.70
2019-02-06T00:31:58.080Z,3.70
2019-02-06T00:34:27.085Z,3.70
2019-02-06T00:36:55.257Z,3.60
2019-02-06T00:39:23.908Z,3.50
2019-02-06T00:41:52.226Z,3.50
2019-02-06T00:44:20.650Z,3.50
2019-02-06T00:46:48.476Z,3.60
2019-02-06T00:51:44.932Z,3.60
2019-02-06T00:54:13.312Z,3.50
2019-02-06T00:56:44.888Z,3.50
2019-02-06T00:59:12.816Z,3.60
2019-02-06T01:01:44.121Z,3.60
2019-02-06T01:04:12.149Z,3.50
2019-02-06T01:06:40.752Z,3.50
2019-02-06T01:09:09.702Z,3.50
2019-02-06T01:11:38.037Z,3.40
2019-02-06T01:14:06.366Z,3.40
2019-02-06T01:19:02.228Z,3.40
2019-02-06T01:21:30.437Z,3.30
2019-02-06T01:23:58.666Z,3.30
2019-02-06T01:26:28.515Z,3.20
2019-02-06T01:28:56.395Z,3.20
2019-02-06T01:31:25.905Z,3.30
2019-02-06T01:33:54.161Z,3.30
2019-02-06T01:36:22.105Z,3.30
2019-02-06T01:38:50.011Z,3.30
2019-02-06T01:43:45.051Z,3.30
2019-02-06T01:51:12.076Z,3.30
2019-02-06T01:53:40.242Z,3.10
2019-02-06T01:56:08.632Z,3.00
2019-02-06T01:58:37.007Z,3.00
2019-02-06T02:03:33.163Z,3.10
2019-02-06T02:06:02.623Z,3.10
2019-02-06T02:08:33.935Z,3.10
2019-02-06T02:11:03.524Z,3.20
2019-02-06T02:13:32.318Z,3.10
2019-02-06T02:30:50.940Z,2.90
2019-02-06T02:33:19.327Z,2.80
2019-02-06T02:35:47.615Z,2.80
2019-02-06T02:38:15.980Z,2.80
2019-02-06T02:40:44.277Z,2.80
2019-02-06T02:43:13.053Z,2.80
2019-02-06T02:45:42.031Z,2.70
2019-02-06T02:48:09.573Z,2.80
2019-02-06T02:50:37.786Z,2.80
2019-02-06T02:53:05.950Z,2.90
2019-02-06T02:58:02.909Z,2.90
2019-02-06T03:00:55.656Z,2.80
2019-02-06T03:03:36.229Z,2.80
2019-02-06T03:06:06.165Z,2.70
2019-02-06T03:08:34.625Z,2.60
2019-02-06T03:11:02.184Z,2.50
2019-02-06T03:13:30.097Z,2.50
2019-02-06T03:15:58.432Z,2.50
2019-02-06T03:18:26.691Z,2.40
2019-02-06T03:20:55.187Z,2.40
2019-02-06T03:23:24.175Z,2.50
2019-02-06T03:28:19.707Z,2.70
2019-02-06T03:30:47.755Z,2.70
2019-02-06T03:33:15.390Z,2.70
2019-02-06T03:35:43.210Z,2.60
2019-02-06T03:40:39.274Z,2.60
2019-02-06T03:43:06.827Z,2.60
2019-02-06T03:45:35.004Z,2.60
2019-02-06T03:52:58.511Z,2.30
2019-02-06T03:55:26.344Z,2.30
2019-02-06T03:57:54.251Z,2.30
2019-02-06T04:00:22.161Z,2.30
2019-02-06T04:02:50.682Z,2.30
2019-02-06T04:05:20.073Z,2.40
2019-02-06T04:07:48.352Z,2.30
2019-02-06T04:10:15.895Z,2.20
2019-02-06T04:12:44.403Z,2.10
2019-02-06T04:17:40.852Z,2.10
2019-02-06T04:22:36.883Z,2.20
2019-02-06T04:25:05.087Z,2.60
2019-02-06T04:27:34.146Z,2.10
2019-02-06T04:30:02.756Z,2.00
2019-02-06T04:32:31.169Z,2.00
2019-02-06T04:34:59.379Z,1.40
2019-02-06T04:37:27.278Z,2.00
2019-02-06T04:39:55.459Z,2.00
2019-02-06T04:42:23.624Z,2.00
2019-02-06T04:44:51.803Z,2.00
2019-02-06T04:49:48.072Z,2.00
2019-02-06T04:52:16.640Z,2.00
2019-02-06T04:54:47.209Z,2.20
2019-02-06T04:57:15.482Z,2.30
2019-02-06T04:59:42.766Z,2.20
2019-02-06T05:02:11.395Z,2.00
2019-02-06T05:04:40.010Z,2.00
2019-02-06T05:07:18.650Z,2.00
2019-02-06T05:12:09.531Z,1.90
2019-02-06T05:14:36.737Z,1.90
2019-02-06T05:17:04.726Z,1.90
2019-02-06T05:19:32.625Z,1.90
2019-02-06T05:22:01.359Z,1.90
2019-02-06T05:24:29.565Z,1.90
2019-02-06T05:26:57.602Z,1.90
2019-02-06T05:29:25.828Z,1.90
2019-02-06T05:31:53.257Z,1.90
2019-02-06T05:39:19.819Z,2.80
2019-02-06T05:41:47.707Z,1.90
2019-02-06T05:44:15.606Z,1.90
2019-02-06T05:49:11.788Z,2.20
2019-02-06T05:51:39.374Z,2.10
2019-02-06T05:54:07.329Z,2.10
2019-02-06T05:56:36.422Z,2.20
2019-02-06T05:59:06.012Z,2.10
2019-02-06T06:01:34.699Z,2.00
2019-02-06T06:04:02.065Z,2.00
2019-02-06T06:06:30.472Z,2.00
2019-02-06T06:08:58.924Z,1.90
2019-02-06T06:11:27.233Z,1.90
2019-02-06T06:16:24.289Z,2.00
2019-02-06T06:26:16.204Z,2.30
2019-02-06T06:33:39.575Z,2.50
2019-02-06T06:38:36.513Z,2.50
2019-02-06T06:43:33.953Z,2.50
2019-02-06T06:48:30.866Z,2.50
2019-02-06T06:53:27.727Z,2.50
2019-02-06T06:58:23.729Z,2.50
2019-02-06T07:00:51.673Z,2.40
2019-02-06T07:03:19.294Z,2.30
2019-02-06T07:13:11.163Z,2.20
2019-02-06T07:18:07.451Z,2.30
2019-02-06T07:20:35.791Z,2.30
2019-02-06T07:23:04.288Z,2.30
2019-02-06T07:27:59.130Z,2.40
2019-02-06T07:30:29.219Z,2.40
2019-02-06T07:32:56.797Z,2.40
2019-02-06T07:35:24.823Z,2.50
2019-02-06T07:37:54.966Z,2.50
2019-02-06T07:40:23.140Z,2.50
2019-02-06T07:42:52.040Z,2.50
2019-02-06T07:45:21.246Z,2.60
2019-02-06T07:57:43.799Z,2.80
2019-02-06T08:00:11.902Z,2.80
2019-02-06T08:05:12.118Z,2.80
2019-02-06T08:12:38.586Z,2.90
2019-02-06T08:15:08.246Z,2.90
2019-02-06T08:29:56.333Z,3.00
2019-02-06T08:32:24.010Z,3.10
2019-02-06T08:34:51.603Z,3.10
2019-02-06T08:37:18.944Z,3.10
2019-02-06T08:39:47.335Z,3.10
2019-02-06T08:42:15.312Z,3.10
2019-02-06T08:44:43.886Z,3.20
2019-02-06T08:47:12.589Z,3.20
2019-02-06T08:49:40.855Z,3.20
2019-02-06T08:52:13.399Z,3.30
2019-02-06T08:54:40.754Z,3.20
2019-02-06T08:59:37.033Z,3.40
2019-02-06T09:02:05.914Z,3.50
2019-02-06T09:04:35.079Z,3.60
2019-02-06T09:07:02.862Z,3.60
2019-02-06T09:09:31.158Z,3.70
2019-02-06T09:11:59.864Z,3.80
2019-02-06T09:14:28.448Z,3.90
2019-02-06T09:16:57.495Z,4.10
2019-02-06T09:19:25.755Z,4.10
2019-02-06T09:21:53.783Z,4.20
2019-02-06T09:24:21.649Z,4.30
2019-02-06T09:26:48.963Z,4.50
2019-02-06T09:29:17.439Z,4.80
2019-02-06T09:31:45.927Z,4.70
2019-02-06T09:34:16.222Z,4.90
2019-02-06T09:39:12.820Z,5.00
2019-02-06T09:41:40.984Z,5.00
2019-02-06T09:44:08.555Z,5.30
2019-02-06T09:46:36.836Z,5.30
2019-02-06T09:49:04.985Z,5.60
2019-02-06T09:51:33.136Z,5.80
2019-02-06T09:56:28.319Z,5.90
2019-02-06T10:13:43.961Z,7.90
2019-02-06T10:16:12.696Z,8.00
2019-02-06T10:18:42.674Z,8.30
2019-02-06T10:21:10.651Z,8.30
2019-02-06T10:26:06.927Z,8.40
2019-02-06T10:28:34.985Z,8.50
2019-02-06T10:33:31.198Z,8.70
2019-02-06T10:35:59.821Z,8.70
2019-02-06T10:38:27.762Z,8.70
2019-02-06T10:40:55.988Z,9.10
2019-02-06T10:43:31.702Z,9.30
2019-02-06T10:48:21.717Z,9.70
2019-02-06T10:50:51.032Z,10.20
2019-02-06T10:53:19.390Z,10.70
2019-02-06T10:55:49.137Z,11.20
2019-02-06T10:58:17.744Z,11.30
2019-02-06T11:00:53.735Z,11.70
2019-02-06T11:05:50.382Z,12.80
2019-02-06T11:10:48.119Z,14.50
2019-02-06T11:13:19.661Z,14.90
2019-02-06T11:15:48.034Z,15.20
2019-02-06T11:18:16.380Z,15.20
2019-02-06T11:23:11.556Z,15.20
2019-02-06T11:30:36.087Z,16.10
2019-02-06T11:35:33.323Z,17.10
2019-02-06T11:40:31.119Z,18.90
2019-02-06T11:42:59.373Z,18.90
2019-02-06T11:45:30.148Z,19.00
2019-02-06T11:47:58.625Z,19.50
2019-02-06T11:53:00.977Z,18.60
2019-02-06T11:57:57.373Z,15.70
2019-02-06T12:08:05.123Z,13.60
2019-02-06T12:10:33.599Z,13.00
2019-02-06T12:15:30.231Z,12.30
2019-02-06T12:17:58.735Z,13.30
2019-02-06T12:20:27.279Z,13.30
2019-02-06T12:22:56.086Z,13.50
2019-02-06T12:27:52.835Z,14.60
2019-02-06T12:35:20.304Z,14.50
2019-02-06T12:37:48.818Z,14.20
2019-02-06T12:42:47.109Z,14.90
2019-02-06T12:45:15.924Z,15.60
2019-02-06T12:47:44.106Z,15.80
2019-02-06T12:52:40.632Z,15.30
2019-02-06T12:55:11.063Z,15.20
2019-02-06T12:57:41.910Z,15.10
2019-02-06T13:00:14.553Z,14.20
2019-02-06T13:02:42.462Z,13.70
2019-02-06T13:05:10.833Z,13.30
2019-02-06T13:07:38.667Z,12.70
2019-02-06T13:12:34.093Z,12.20
2019-02-06T13:15:02.362Z,12.10
2019-02-06T13:17:30.259Z,12.20
2019-02-06T13:19:58.632Z,12.60
2019-02-06T13:22:27.253Z,13.90
2019-02-06T13:32:17.287Z,12.80
2019-02-06T13:34:44.936Z,12.30
2019-02-06T13:37:13.604Z,12.10
2019-02-06T13:42:10.655Z,12.40
2019-02-06T13:44:41.413Z,12.50
2019-02-06T13:47:08.266Z,12.70
2019-02-06T13:52:17.019Z,12.50
2019-02-06T14:07:05.101Z,11.20
2019-02-06T14:09:34.205Z,11.30
2019-02-06T14:14:30.242Z,11.50
2019-02-06T14:16:57.836Z,11.10
2019-02-06T14:19:26.060Z,11.10
2019-02-06T14:21:54.372Z,10.50
2019-02-06T14:24:42.724Z,10.40
2019-02-06T14:44:31.441Z,11.30
2019-02-06T15:04:24.663Z,10.10
2019-02-06T15:07:33.906Z,9.70
2019-02-06T15:10:42.944Z,9.30
2019-02-06T15:13:27.992Z,9.00
2019-02-06T15:22:11.104Z,9.40
2019-02-06T15:36:04.076Z,8.60
2019-02-06T15:39:22.154Z,8.20
2019-02-06T15:44:50.791Z,8.00
2019-02-06T15:47:44.650Z,7.80
2019-02-06T15:50:50.164Z,7.70
2019-02-06T15:56:37.858Z,7.40
2019-02-06T15:59:16.539Z,7.30
2019-02-06T16:02:00.012Z,7.20
2019-02-06T16:05:34.334Z,7.10
2019-02-06T16:08:46.065Z,7.20
2019-02-06T16:17:40.644Z,6.70
2019-02-06T16:20:32.866Z,6.70
2019-02-06T16:23:24.491Z,6.60
2019-02-06T16:26:29.223Z,6.80
2019-02-06T16:40:48.580Z,6.50
2019-02-06T16:51:54.321Z,6.40
2019-02-06T16:57:36.587Z,6.20
2019-02-06T17:03:49.542Z,6.10
2019-02-06T17:06:40.723Z,6.60
2019-02-06T17:09:48.013Z,6.00
2019-02-06T17:12:53.739Z,6.20
2019-02-06T17:15:50.889Z,6.40
2019-02-06T17:25:05.284Z,5.80
2019-02-06T17:28:13.676Z,5.90
2019-02-06T17:31:09.076Z,5.60
2019-02-06T17:37:24.722Z,5.70
2019-02-06T17:43:05.496Z,5.80
2019-02-06T17:46:20.485Z,5.60
2019-02-06T17:51:50.871Z,5.60
2019-02-06T17:54:49.860Z,5.60
2019-02-06T18:07:10.450Z,5.40
2019-02-06T18:12:06.143Z,5.20
2019-02-06T18:14:34.445Z,5.20
2019-02-06T18:17:04.614Z,5.20
2019-02-06T18:19:37.339Z,5.20
2019-02-06T18:22:07.237Z,5.10
2019-02-06T18:24:37.682Z,5.10
2019-02-06T18:29:36.564Z,5.50
2019-02-06T18:34:43.167Z,5.10
2019-02-06T18:37:13.906Z,5.00
2019-02-06T18:39:42.759Z,4.90
2019-02-06T18:44:43.805Z,4.90
2019-02-06T18:47:12.915Z,4.90
2019-02-06T18:49:44.291Z,4.90
2019-02-06T18:57:17.884Z,5.00
2019-02-06T18:59:46.631Z,4.80
2019-02-06T19:02:14.953Z,4.90
2019-02-06T19:04:43.467Z,5.30
2019-02-06T19:07:11.403Z,4.70
2019-02-06T19:29:29.308Z,4.60
2019-02-06T19:34:25.545Z,4.20
2019-02-06T19:36:55.570Z,4.50
2019-02-06T19:49:17.279Z,4.60
2019-02-06T19:54:13.940Z,4.40
2019-02-06T19:56:42.525Z,4.40
2019-02-06T19:59:13.110Z,5.20
2019-02-06T20:01:42.194Z,4.50
2019-02-06T20:04:12.278Z,4.60
2019-02-06T20:11:39.280Z,4.30
2019-02-06T20:16:36.364Z,3.80
2019-02-06T20:19:04.943Z,4.10
2019-02-06T20:24:01.951Z,4.80
2019-02-06T20:29:02.028Z,4.00
2019-02-06T20:31:31.270Z,4.20
2019-02-06T20:34:00.272Z,3.90
2019-02-06T20:43:55.683Z,3.60
2019-02-06T20:46:25.626Z,3.60
2019-02-06T20:48:54.037Z,3.80
2019-02-06T20:56:18.781Z,4.00
2019-02-06T21:06:13.179Z,3.90
2019-02-06T21:16:08.328Z,3.70
2019-02-06T21:26:11.166Z,3.60
2019-02-06T21:28:42.891Z,3.30
2019-02-06T21:31:14.699Z,3.40
2019-02-06T21:59:16.407Z,3.40
2019-02-06T22:06:54.233Z,3.70
2019-02-06T22:09:24.486Z,3.50
2019-02-06T22:31:45.717Z,3.40
2019-02-06T22:49:51.622Z,3.70
2019-02-06T22:54:47.452Z,3.30
2019-02-06T23:02:12.295Z,3.30
2019-02-06T23:21:55.676Z,3.40
2019-02-06T23:26:54.736Z,3.10
2019-02-06T23:29:22.519Z,3.50
